createdAt,value
2023-12-30T00:00:40.487Z,34.30
2023-12-30T00:05:44.013Z,36.15
2023-12-30T00:10:47.741Z,36.28
2023-12-30T00:15:51.260Z,34.65
2023-12-30T00:20:55.001Z,37.50
2023-12-30T00:25:58.504Z,36.92
2023-12-30T00:31:01.949Z,32.55
2023-12-30T00:36:06.636Z,34.53
2023-12-30T00:41:10.106Z,37.63
2023-12-30T00:46:14.509Z,41.90
2023-12-30T00:51:18.250Z,40.00
2023-12-30T00:56:21.639Z,38.15
2023-12-30T01:01:25.205Z,35.17
2023-12-30T01:06:28.628Z,35.38
2023-12-30T01:11:31.924Z,35.40
2023-12-30T01:16:38.007Z,37.30
2023-12-30T01:21:41.476Z,31.98
2023-12-30T01:26:45.081Z,35.50
2023-12-30T01:31:48.563Z,34.53
2023-12-30T01:36:52.046Z,34.75
2023-12-30T01:41:55.316Z,36.33
2023-12-30T01:47:00.619Z,36.25
2023-12-30T01:52:05.320Z,36.85
2023-12-30T01:57:10.649Z,36.05
2023-12-30T02:02:14.005Z,35.58
2023-12-30T02:07:18.036Z,36.47
2023-12-30T02:12:21.305Z,35.88
2023-12-30T02:17:24.675Z,35.53
2023-12-30T02:22:28.212Z,34.50
2023-12-30T02:27:32.026Z,33.85
2023-12-30T02:32:35.276Z,34.80
2023-12-30T02:37:39.068Z,34.53
2023-12-30T02:42:42.729Z,32.75
2023-12-30T02:47:46.079Z,31.63
2023-12-30T02:52:49.441Z,30.48
2023-12-30T02:57:53.051Z,31.17
2023-12-30T03:02:56.355Z,30.67
2023-12-30T03:08:00.736Z,32.25
2023-12-30T03:13:05.075Z,29.50
2023-12-30T03:18:08.713Z,26.58
2023-12-30T03:23:12.057Z,27.65
2023-12-30T03:28:15.500Z,31.23
2023-12-30T03:33:19.026Z,23.30
2023-12-30T03:38:22.977Z,20.98
2023-12-30T03:43:26.391Z,20.97
2023-12-30T03:48:29.771Z,21.45
2023-12-30T03:53:34.154Z,19.50
2023-12-30T03:58:37.634Z,19.95
2023-12-30T04:03:40.937Z,19.55
2023-12-30T04:08:44.286Z,20.95
2023-12-30T04:13:48.698Z,20.88
2023-12-30T04:18:52.135Z,19.35
2023-12-30T04:23:55.777Z,18.10
2023-12-30T04:28:59.125Z,21.42
2023-12-30T04:34:02.548Z,20.33
2023-12-30T04:39:05.972Z,19.58
2023-12-30T04:44:09.360Z,21.95
2023-12-30T04:49:13.616Z,22.60
2023-12-30T04:54:16.982Z,23.65
2023-12-30T04:59:21.108Z,22.58
2023-12-30T05:04:25.076Z,25.40
2023-12-30T05:09:28.393Z,24.27
2023-12-30T05:14:31.780Z,20.85
2023-12-30T05:19:35.406Z,24.95
2023-12-30T05:24:38.822Z,21.35
2023-12-30T05:29:42.368Z,21.92
2023-12-30T05:34:46.139Z,22.80
2023-12-30T05:39:49.469Z,22.45
2023-12-30T05:44:53.177Z,21.55
2023-12-30T05:49:56.931Z,23.48
2023-12-30T05:55:00.434Z,22.60
2023-12-30T06:00:04.266Z,23.15
2023-12-30T06:05:07.867Z,24.05
2023-12-30T06:10:11.911Z,23.13
2023-12-30T06:15:15.357Z,23.80
2023-12-30T06:20:18.613Z,23.00
2023-12-30T06:25:22.378Z,21.35
2023-12-30T06:30:25.816Z,21.75
2023-12-30T06:35:29.505Z,23.38
2023-12-30T06:40:33.076Z,21.80
2023-12-30T06:45:36.904Z,22.88
2023-12-30T06:50:40.333Z,44.10
2023-12-30T06:55:48.002Z,33.40
2023-12-30T07:00:51.968Z,77.10
2023-12-30T07:05:55.452Z,60.63
2023-12-30T07:10:58.778Z,49.92
2023-12-30T07:16:02.794Z,41.55
2023-12-30T07:21:06.879Z,26.55
2023-12-30T07:26:10.218Z,22.60
2023-12-30T07:31:17.183Z,31.10
2023-12-30T07:36:21.514Z,28.45
2023-12-30T07:41:25.544Z,31.93
2023-12-30T07:46:28.816Z,38.27
2023-12-30T07:51:32.583Z,33.95
2023-12-30T07:56:36.201Z,41.63
2023-12-30T08:01:46.053Z,37.33
2023-12-30T08:06:49.515Z,34.78
2023-12-30T08:11:59.568Z,36.75
2023-12-30T08:17:06.117Z,35.10
2023-12-30T08:22:09.423Z,36.03
2023-12-30T08:27:13.487Z,28.35
2023-12-30T08:32:16.793Z,35.13
2023-12-30T08:37:20.144Z,33.85
2023-12-30T08:42:24.044Z,36.60
2023-12-30T08:47:27.464Z,49.60
2023-12-30T08:52:31.007Z,35.00
2023-12-30T08:57:34.526Z,31.83
2023-12-30T09:02:38.283Z,28.95
2023-12-30T09:07:41.803Z,32.28
2023-12-30T09:12:48.925Z,29.13
2023-12-30T09:17:52.956Z,30.55
2023-12-30T09:22:56.752Z,32.57
2023-12-30T09:28:00.165Z,31.98
2023-12-30T09:33:04.778Z,32.10
2023-12-30T09:38:08.712Z,31.50
2023-12-30T09:43:13.955Z,33.00
2023-12-30T09:48:18.717Z,32.72
2023-12-30T09:53:24.121Z,33.70
2023-12-30T09:58:28.040Z,33.78
2023-12-30T10:03:32.536Z,33.25
2023-12-30T10:08:36.407Z,33.45
2023-12-30T10:13:40.000Z,31.13
2023-12-30T10:18:43.474Z,31.70
2023-12-30T10:23:50.150Z,29.35
2023-12-30T10:28:54.374Z,30.15
2023-12-30T10:33:57.867Z,29.77
2023-12-30T10:39:02.781Z,36.00
2023-12-30T10:44:06.472Z,37.25
2023-12-30T10:49:17.028Z,39.50
2023-12-30T10:54:26.218Z,42.55
2023-12-30T10:59:30.119Z,41.40
2023-12-30T11:04:33.837Z,40.33
2023-12-30T11:09:38.299Z,39.53
2023-12-30T11:14:41.572Z,39.38
2023-12-30T11:19:45.075Z,38.75
2023-12-30T11:24:49.471Z,42.63
2023-12-30T11:29:55.179Z,46.50
2023-12-30T11:35:01.486Z,47.72
2023-12-30T11:40:06.764Z,50.03
2023-12-30T11:45:10.442Z,51.63
2023-12-30T11:50:15.598Z,49.40
2023-12-30T12:00:23.539Z,51.78
2023-12-30T12:05:27.347Z,47.33
2023-12-30T12:10:30.658Z,45.97
2023-12-30T12:15:34.675Z,45.65
2023-12-30T12:20:40.386Z,46.35
2023-12-30T12:25:45.126Z,46.92
2023-12-30T12:30:49.001Z,45.97
2023-12-30T12:35:52.335Z,46.17
2023-12-30T12:40:56.000Z,43.25
2023-12-30T12:45:59.829Z,43.42
2023-12-30T12:51:03.446Z,44.65
2023-12-30T12:56:07.329Z,46.38
2023-12-30T13:01:11.193Z,45.88
2023-12-30T13:06:15.082Z,48.03
2023-12-30T13:11:27.152Z,45.70
2023-12-30T13:16:30.454Z,47.28
2023-12-30T13:21:34.961Z,47.83
2023-12-30T13:26:39.578Z,47.83
2023-12-30T13:31:45.936Z,48.73
2023-12-30T13:36:58.923Z,54.45
2023-12-30T13:42:06.783Z,50.20
2023-12-30T13:47:28.998Z,49.15
2023-12-30T13:52:33.955Z,50.22
2023-12-30T13:57:39.279Z,51.30
2023-12-30T14:02:45.665Z,52.58
2023-12-30T14:07:53.084Z,49.90
2023-12-30T14:13:03.116Z,49.40
2023-12-30T14:18:07.096Z,51.20
2023-12-30T14:23:13.785Z,50.13
2023-12-30T14:28:17.247Z,47.85
2023-12-30T14:33:20.636Z,47.00
2023-12-30T14:38:24.285Z,45.47
2023-12-30T14:43:27.868Z,44.35
2023-12-30T14:48:31.297Z,50.35
2023-12-30T14:53:35.501Z,52.87
2023-12-30T14:58:39.166Z,53.67
2023-12-30T15:03:42.576Z,53.10
2023-12-30T15:08:47.282Z,53.00
2023-12-30T15:13:52.679Z,50.42
2023-12-30T15:18:56.588Z,55.83
2023-12-30T15:24:01.471Z,52.35
2023-12-30T15:29:04.813Z,46.95
2023-12-30T15:34:08.251Z,45.65
2023-12-30T15:39:13.539Z,49.90
2023-12-30T15:44:16.966Z,45.42
2023-12-30T15:49:20.402Z,46.58
2023-12-30T15:54:23.736Z,42.90
2023-12-30T15:59:28.657Z,40.83
2023-12-30T16:09:35.710Z,39.97
2023-12-30T16:14:39.196Z,37.60
2023-12-30T16:19:43.327Z,40.20
2023-12-30T16:24:46.802Z,38.23
2023-12-30T16:29:51.427Z,37.08
2023-12-30T16:34:55.056Z,38.65
2023-12-30T16:39:58.345Z,41.95
2023-12-30T16:45:02.597Z,44.70
2023-12-30T16:50:08.035Z,47.93
2023-12-30T16:55:13.052Z,68.88
2023-12-30T17:00:17.558Z,66.72
2023-12-30T17:05:22.290Z,48.63
2023-12-30T17:10:25.692Z,45.15
2023-12-30T17:15:28.972Z,47.03
2023-12-30T17:20:35.245Z,44.70
2023-12-30T17:25:39.431Z,42.17
2023-12-30T17:30:42.937Z,45.90
2023-12-30T17:35:46.385Z,40.58
2023-12-30T17:40:50.211Z,38.83
2023-12-30T17:45:53.727Z,35.42
2023-12-30T17:50:57.043Z,39.67
2023-12-30T17:56:00.729Z,35.42
2023-12-30T18:01:04.876Z,45.80
2023-12-30T18:06:08.486Z,45.43
2023-12-30T18:11:11.832Z,39.47
2023-12-30T18:16:15.483Z,43.58
2023-12-30T18:21:18.803Z,37.38
2023-12-30T18:26:22.192Z,38.90
2023-12-30T18:31:25.933Z,40.67
2023-12-30T18:36:29.481Z,42.33
2023-12-30T18:41:33.000Z,35.92
2023-12-30T18:46:36.953Z,35.78
2023-12-30T18:51:42.528Z,38.05
2023-12-30T18:56:45.927Z,36.03
2023-12-30T19:01:50.147Z,40.40
2023-12-30T19:06:53.550Z,43.80
2023-12-30T19:11:57.192Z,41.65
2023-12-30T19:17:00.556Z,44.47
2023-12-30T19:22:06.000Z,47.03
2023-12-30T19:27:09.674Z,42.40
2023-12-30T19:32:13.002Z,36.15
2023-12-30T19:37:16.432Z,46.45
2023-12-30T19:42:19.794Z,35.58
2023-12-30T19:47:23.307Z,36.10
2023-12-30T19:52:26.730Z,36.67
2023-12-30T19:57:30.033Z,38.45
2023-12-30T20:02:33.502Z,49.22
2023-12-30T20:07:37.020Z,58.88
2023-12-30T20:12:40.698Z,50.00
2023-12-30T20:17:44.116Z,51.85
2023-12-30T20:22:48.415Z,53.25
2023-12-30T20:27:51.784Z,52.50
2023-12-30T20:32:55.128Z,43.95
2023-12-30T20:37:58.524Z,40.17
2023-12-30T20:43:02.010Z,41.53
2023-12-30T20:48:06.156Z,43.78
2023-12-30T20:53:10.916Z,44.70
2023-12-30T21:03:18.023Z,54.00
2023-12-30T21:08:22.224Z,59.92
2023-12-30T21:13:25.678Z,55.47
2023-12-30T21:18:29.269Z,42.20
2023-12-30T21:23:32.549Z,47.53
2023-12-30T21:28:37.068Z,39.97
2023-12-30T21:33:40.436Z,46.05
2023-12-30T21:38:43.850Z,42.42
2023-12-30T21:43:47.359Z,41.67
2023-12-30T21:48:50.692Z,46.25
2023-12-30T21:53:56.935Z,43.45
2023-12-30T21:59:00.262Z,45.63
2023-12-30T22:04:03.982Z,46.85
2023-12-30T22:09:07.411Z,36.72
2023-12-30T22:14:10.885Z,37.35
2023-12-30T22:19:15.017Z,45.42
2023-12-30T22:24:18.420Z,36.95
2023-12-30T22:29:21.973Z,39.60
2023-12-30T22:34:25.430Z,39.05
2023-12-30T22:39:28.753Z,38.28
2023-12-30T22:44:32.757Z,38.28
2023-12-30T22:49:38.559Z,36.13
2023-12-30T22:54:44.401Z,33.70
2023-12-30T22:59:47.844Z,36.28
2023-12-30T23:04:51.363Z,37.67
2023-12-30T23:09:55.310Z,48.73
2023-12-30T23:14:58.689Z,42.63
2023-12-30T23:20:04.079Z,39.13
2023-12-30T23:25:08.046Z,41.97
2023-12-30T23:30:12.172Z,43.72
2023-12-30T23:35:15.647Z,38.83
2023-12-30T23:40:19.052Z,38.47
2023-12-30T23:45:22.352Z,37.17
2023-12-30T23:50:25.801Z,39.30
2023-12-30T23:55:29.117Z,35.13
